createdAt,value
2019-04-20T00:02:53.482Z,49.80
2019-04-20T00:07:01.919Z,50.00
2019-04-20T00:11:19.836Z,49.90
2019-04-20T00:15:24.080Z,49.90
2019-04-20T00:19:40.737Z,50.20
2019-04-20T00:23:51.097Z,50.60
2019-04-20T00:28:24.058Z,50.70
2019-04-20T00:32:34.300Z,51.00
2019-04-20T00:36:30.740Z,51.10
2019-04-20T00:40:41.289Z,51.20
2019-04-20T00:45:00.667Z,51.30
2019-04-20T00:49:24.268Z,51.30
2019-04-20T00:53:26.188Z,51.80
2019-04-20T00:57:37.483Z,52.00
2019-04-20T01:02:01.070Z,52.20
2019-04-20T01:06:23.445Z,52.30
2019-04-20T01:10:21.505Z,52.70
2019-04-20T01:14:42.767Z,52.90
2019-04-20T01:18:47.087Z,53.30
2019-04-20T01:23:02.757Z,53.70
2019-04-20T01:27:25.519Z,54.10
2019-04-20T01:31:29.594Z,54.00
2019-04-20T01:35:48.853Z,54.00
2019-04-20T01:39:52.006Z,54.20
2019-04-20T01:43:56.769Z,54.70
2019-04-20T01:48:08.332Z,55.10
2019-04-20T01:52:26.888Z,55.60
2019-04-20T01:56:47.637Z,56.00
2019-04-20T02:01:14.957Z,56.40
2019-04-20T02:05:24.740Z,56.50
2019-04-20T02:09:32.706Z,56.70
2019-04-20T02:13:49.926Z,56.80
2019-04-20T02:18:07.685Z,56.90
2019-04-20T02:22:22.959Z,56.90
2019-04-20T02:26:20.005Z,57.10
2019-04-20T02:31:04.655Z,57.30
2019-04-20T02:39:37.824Z,58.00
2019-04-20T02:43:58.043Z,57.90
2019-04-20T02:47:56.705Z,58.00
2019-04-20T02:52:15.184Z,58.20
2019-04-20T02:56:26.448Z,58.80
2019-04-20T03:04:25.764Z,59.40
2019-04-20T03:08:47.296Z,59.50
2019-04-20T03:12:59.666Z,59.50
2019-04-20T03:17:18.645Z,59.50
2019-04-20T03:21:27.320Z,59.30
2019-04-20T03:25:55.289Z,59.20
2019-04-20T03:30:22.888Z,59.30
2019-04-20T03:34:51.840Z,59.20
2019-04-20T03:38:26.274Z,58.60
2019-04-20T03:42:22.383Z,57.80
2019-04-20T03:46:41.947Z,57.20
2019-04-20T03:51:04.621Z,57.20
2019-04-20T03:55:23.968Z,57.20
2019-04-20T03:59:58.599Z,57.90
2019-04-20T04:04:10.483Z,57.20
2019-04-20T04:08:19.428Z,57.40
2019-04-20T04:12:54.687Z,57.80
2019-04-20T04:17:06.208Z,58.10
2019-04-20T04:21:27.142Z,58.10
2019-04-20T04:25:48.330Z,58.20
2019-04-20T04:29:56.940Z,59.20
2019-04-20T04:34:10.725Z,59.50
2019-04-20T04:38:27.152Z,59.50
2019-04-20T04:42:42.373Z,59.50
2019-04-20T04:46:33.854Z,58.80
2019-04-20T04:50:50.885Z,57.80
2019-04-20T04:55:09.559Z,57.30
2019-04-20T04:59:08.526Z,57.40
2019-04-20T05:03:35.831Z,57.00
2019-04-20T05:07:49.546Z,56.00
2019-04-20T05:11:44.950Z,55.40
2019-04-20T05:16:07.484Z,60.60
2019-04-20T05:20:24.207Z,60.50
2019-04-20T05:24:38.466Z,55.00
2019-04-20T05:28:48.243Z,50.30
2019-04-20T05:32:57.790Z,51.20
2019-04-20T05:37:28.413Z,48.90
2019-04-20T05:41:34.004Z,47.20
2019-04-20T05:45:41.614Z,47.40
2019-04-20T05:49:53.895Z,46.60
2019-04-20T05:54:13.852Z,45.30
2019-04-20T05:58:26.206Z,43.70
2019-04-20T06:02:37.726Z,43.60
2019-04-20T06:06:51.572Z,40.30
2019-04-20T06:11:04.469Z,40.60
2019-04-20T06:15:09.449Z,40.20
2019-04-20T06:19:32.013Z,40.30
2019-04-20T06:23:56.413Z,40.20
2019-04-20T06:28:04.251Z,39.80
2019-04-20T06:32:20.349Z,39.40
2019-04-20T06:36:32.125Z,39.70
2019-04-20T06:44:54.623Z,38.70
2019-04-20T06:49:11.851Z,38.10
2019-04-20T06:53:28.551Z,37.90
2019-04-20T06:57:36.252Z,38.20
2019-04-20T07:01:48.653Z,37.80
2019-04-20T07:06:06.468Z,37.40
2019-04-20T07:10:14.989Z,37.50
2019-04-20T07:14:04.854Z,38.80
2019-04-20T07:18:35.515Z,38.70
2019-04-20T07:23:02.310Z,38.70
2019-04-20T07:27:00.725Z,38.70
2019-04-20T07:31:13.082Z,38.60
2019-04-20T07:35:26.318Z,38.30
2019-04-20T07:39:46.619Z,37.80
2019-04-20T07:44:01.675Z,37.90
2019-04-20T07:48:11.295Z,37.10
2019-04-20T07:51:57.602Z,36.60
2019-04-20T07:56:32.606Z,36.80
2019-04-20T08:00:53.252Z,36.60
2019-04-20T08:04:56.249Z,36.80
2019-04-20T08:09:08.325Z,35.40
2019-04-20T08:13:32.014Z,35.20
2019-04-20T08:17:48.542Z,35.50
2019-04-20T08:21:47.305Z,35.40
2019-04-20T08:25:53.882Z,35.20
2019-04-20T08:30:09.234Z,36.50
2019-04-20T08:34:43.099Z,35.60
2019-04-20T08:43:10.773Z,35.60
2019-04-20T08:47:18.319Z,35.90
2019-04-20T08:51:25.905Z,36.00
2019-04-20T08:55:33.411Z,36.50
2019-04-20T08:59:32.370Z,36.10
2019-04-20T09:03:54.967Z,34.70
2019-04-20T09:08:06.941Z,35.00
2019-04-20T09:12:30.813Z,34.60
2019-04-20T09:16:26.888Z,34.40
2019-04-20T09:20:43.499Z,34.60
2019-04-20T09:25:07.469Z,34.00
2019-04-20T09:29:07.288Z,33.40
2019-04-20T09:33:41.745Z,32.50
2019-04-20T09:38:10.377Z,32.30
2019-04-20T09:42:18.995Z,33.70
2019-04-20T09:46:37.778Z,31.10
2019-04-20T09:51:02.352Z,30.50
2019-04-20T09:55:06.789Z,31.20
2019-04-20T09:59:22.052Z,32.20
2019-04-20T10:03:18.477Z,32.40
2019-04-20T10:07:33.676Z,30.50
2019-04-20T10:11:43.722Z,28.80
2019-04-20T10:15:53.829Z,28.40
2019-04-20T10:20:17.207Z,28.10
2019-04-20T10:24:20.864Z,27.80
2019-04-20T10:28:33.863Z,27.70
2019-04-20T10:32:47.169Z,27.40
2019-04-20T10:36:57.773Z,29.70
2019-04-20T10:41:14.871Z,28.80
2019-04-20T10:45:21.293Z,29.10
2019-04-20T10:49:33.335Z,29.30
2019-04-20T10:53:44.805Z,29.10
2019-04-20T10:57:59.652Z,29.10
2019-04-20T11:02:10.319Z,28.60
2019-04-20T11:06:22.671Z,27.00
2019-04-20T11:10:48.282Z,24.90
2019-04-20T11:14:45.769Z,27.50
2019-04-20T11:18:57.728Z,24.80
2019-04-20T11:23:08.502Z,24.80
2019-04-20T11:27:22.539Z,25.80
2019-04-20T11:31:36.358Z,25.40
2019-04-20T11:35:46.220Z,24.20
2019-04-20T11:39:57.161Z,25.10
2019-04-20T11:44:07.812Z,23.10
2019-04-20T11:48:19.202Z,22.90
2019-04-20T11:52:33.201Z,23.70
2019-04-20T11:56:47.088Z,23.60
2019-04-20T12:01:10.381Z,22.90
2019-04-20T12:05:29.862Z,22.10
2019-04-20T12:09:31.443Z,23.00
2019-04-20T12:13:42.733Z,23.60
2019-04-20T12:17:53.691Z,24.70
2019-04-20T12:22:05.642Z,24.80
2019-04-20T12:26:16.550Z,25.00
2019-04-20T12:30:29.888Z,24.80
2019-04-20T12:34:41.269Z,24.90
2019-04-20T12:38:52.911Z,25.60
2019-04-20T12:43:04.943Z,25.90
2019-04-20T12:47:17.462Z,25.50
2019-04-20T12:51:33.854Z,25.20
2019-04-20T12:55:40.833Z,25.10
2019-04-20T12:59:54.075Z,24.80
2019-04-20T13:04:07.473Z,25.20
2019-04-20T13:08:23.151Z,25.50
2019-04-20T13:12:32.212Z,25.50
2019-04-20T13:16:44.073Z,25.70
2019-04-20T13:20:58.083Z,25.60
2019-04-20T13:25:08.126Z,25.70
2019-04-20T13:29:19.280Z,25.60
2019-04-20T13:33:29.768Z,25.60
2019-04-20T13:37:43.455Z,25.60
2019-04-20T13:42:03.432Z,25.60
2019-04-20T13:46:07.161Z,25.50
2019-04-20T13:50:20.376Z,25.10
2019-04-20T13:54:31.697Z,25.20
2019-04-20T13:58:47.785Z,25.40
2019-04-20T14:03:07.023Z,25.80
2019-04-20T14:07:19.119Z,25.80
2019-04-20T14:11:31.503Z,25.40
2019-04-20T14:15:42.917Z,25.40
2019-04-20T14:19:53.386Z,25.30
2019-04-20T14:24:04.348Z,25.60
2019-04-20T14:28:15.420Z,25.70
2019-04-20T14:32:29.107Z,25.80
2019-04-20T14:36:39.422Z,25.60
2019-04-20T14:40:52.671Z,25.90
2019-04-20T14:45:06.791Z,26.10
2019-04-20T14:49:17.178Z,26.00
2019-04-20T14:53:29.398Z,26.30
2019-04-20T14:57:41.489Z,26.10
2019-04-20T15:01:56.749Z,26.30
2019-04-20T15:06:10.026Z,26.20
2019-04-20T15:10:20.617Z,26.50
2019-04-20T15:14:34.641Z,26.40
2019-04-20T15:18:49.110Z,26.60
2019-04-20T15:22:59.730Z,26.70
2019-04-20T15:27:10.262Z,26.90
2019-04-20T15:31:20.481Z,26.20
2019-04-20T15:35:33.398Z,26.30
2019-04-20T15:39:45.295Z,26.60
2019-04-20T15:43:57.396Z,27.00
2019-04-20T15:48:08.003Z,27.10
2019-04-20T15:52:24.495Z,27.50
2019-04-20T15:56:30.505Z,27.30
2019-04-20T16:00:42.544Z,27.30
2019-04-20T16:04:54.533Z,27.70
2019-04-20T16:09:06.494Z,27.60
2019-04-20T16:13:27.313Z,27.70
2019-04-20T16:17:36.394Z,27.70
2019-04-20T16:21:43.839Z,27.80
2019-04-20T16:25:59.613Z,27.90
2019-04-20T16:30:09.794Z,28.10
2019-04-20T16:34:21.270Z,28.30
2019-04-20T16:38:33.158Z,28.00
2019-04-20T16:42:44.308Z,27.90
2019-04-20T16:46:56.407Z,28.30
2019-04-20T16:51:06.942Z,28.40
2019-04-20T16:55:18.730Z,28.40
2019-04-20T16:59:32.512Z,28.60
2019-04-20T17:03:51.956Z,28.60
2019-04-20T17:07:55.365Z,28.60
2019-04-20T17:12:07.748Z,28.70
2019-04-20T17:16:19.628Z,29.10
2019-04-20T17:20:30.668Z,29.30
2019-04-20T17:24:40.952Z,29.40
2019-04-20T17:28:55.549Z,29.10
2019-04-20T17:33:14.055Z,28.80
2019-04-20T17:37:28.050Z,29.20
2019-04-20T17:41:59.412Z,29.60
2019-04-20T17:46:02.171Z,30.00
2019-04-20T17:50:27.041Z,30.80
2019-04-20T17:54:27.663Z,31.90
2019-04-20T17:58:40.041Z,35.10
2019-04-20T18:03:07.302Z,36.00
2019-04-20T18:07:32.442Z,36.50
2019-04-20T18:11:21.850Z,37.20
2019-04-20T18:15:45.399Z,37.40
2019-04-20T18:19:44.924Z,37.90
2019-04-20T18:23:56.260Z,38.70
2019-04-20T18:28:18.536Z,38.60
2019-04-20T18:32:27.451Z,38.80
2019-04-20T18:36:44.048Z,39.20
2019-04-20T18:41:00.987Z,39.70
2019-04-20T18:45:28.364Z,40.30
2019-04-20T18:49:37.859Z,41.00
2019-04-20T18:53:42.529Z,41.20
2019-04-20T18:57:49.328Z,41.70
2019-04-20T19:01:59.617Z,41.90
2019-04-20T19:06:11.198Z,41.80
2019-04-20T19:10:27.427Z,41.30
2019-04-20T19:15:03.404Z,41.20
2019-04-20T19:19:22.001Z,41.30
2019-04-20T19:23:23.108Z,41.20
2019-04-20T19:27:41.475Z,41.00
2019-04-20T19:32:07.374Z,41.10
2019-04-20T19:36:15.113Z,41.30
2019-04-20T19:40:28.693Z,41.50
2019-04-20T19:44:45.146Z,41.60
2019-04-20T19:48:52.703Z,41.70
2019-04-20T19:53:24.689Z,42.00
2019-04-20T19:57:25.471Z,42.30
2019-04-20T20:01:22.100Z,42.50
2019-04-20T20:05:40.884Z,42.80
2019-04-20T20:09:53.129Z,43.40
2019-04-20T20:14:05.402Z,43.80
2019-04-20T20:18:34.314Z,44.30
2019-04-20T20:22:37.819Z,44.90
2019-04-20T20:26:52.558Z,45.20
2019-04-20T20:31:11.153Z,45.60
2019-04-20T20:35:19.047Z,45.90
2019-04-20T20:39:27.623Z,46.30
2019-04-20T20:43:45.797Z,46.80
2019-04-20T20:48:04.996Z,46.90
2019-04-20T20:52:17.408Z,47.20
2019-04-20T20:56:22.090Z,47.40
2019-04-20T21:00:36.018Z,47.40
2019-04-20T21:04:37.828Z,47.70
2019-04-20T21:08:53.776Z,47.90
2019-04-20T21:13:06.571Z,48.10
2019-04-20T21:17:18.389Z,48.30
2019-04-20T21:21:42.241Z,48.30
2019-04-20T21:25:47.547Z,48.50
2019-04-20T21:29:56.912Z,48.70
2019-04-20T21:34:10.051Z,49.00
2019-04-20T21:38:21.778Z,49.20
2019-04-20T21:42:39.533Z,49.30
2019-04-20T21:46:49.215Z,49.40
2019-04-20T21:51:16.634Z,49.70
2019-04-20T21:55:14.098Z,50.00
2019-04-20T21:59:32.066Z,50.20
2019-04-20T22:03:36.810Z,50.50
2019-04-20T22:07:48.738Z,50.60
2019-04-20T22:12:00.193Z,50.80
2019-04-20T22:16:13.129Z,51.10
2019-04-20T22:20:33.635Z,51.40
2019-04-20T22:24:51.959Z,51.50
2019-04-20T22:28:52.180Z,51.70
2019-04-20T22:33:04.293Z,51.40
2019-04-20T22:37:21.254Z,51.50
2019-04-20T22:41:27.909Z,51.40
2019-04-20T22:45:41.206Z,51.50
2019-04-20T22:50:12.915Z,51.60
2019-04-20T22:54:21.905Z,51.60
2019-04-20T22:58:28.897Z,51.50
2019-04-20T23:02:31.526Z,51.70
2019-04-20T23:06:46.252Z,51.90
2019-04-20T23:10:55.536Z,52.20
2019-04-20T23:15:08.243Z,52.40
2019-04-20T23:19:33.926Z,52.60
2019-04-20T23:23:32.155Z,52.80
2019-04-20T23:27:43.834Z,52.90
2019-04-20T23:32:00.233Z,53.20
2019-04-20T23:36:08.115Z,53.50
2019-04-20T23:40:23.613Z,53.90
2019-04-20T23:44:56.248Z,53.90
2019-04-20T23:49:06.589Z,54.00
2019-04-20T23:53:32.970Z,54.10
2019-04-20T23:57:31.609Z,53.90
